createdAt,value
2022-11-20T00:00:04.823Z,21.44
2022-11-20T00:00:36.417Z,21.44
2022-11-20T00:01:08.311Z,21.42
2022-11-20T00:01:39.853Z,21.42
2022-11-20T00:02:11.553Z,21.41
2022-11-20T00:02:43.144Z,21.42
2022-11-20T00:03:14.663Z,21.44
2022-11-20T00:03:46.280Z,21.43
2022-11-20T00:04:17.757Z,21.47
2022-11-20T00:04:49.453Z,21.48
2022-11-20T00:05:21.057Z,21.49
2022-11-20T00:05:52.577Z,21.49
2022-11-20T00:06:24.222Z,21.50
2022-11-20T00:06:55.730Z,21.48
2022-11-20T00:07:27.316Z,21.49
2022-11-20T00:07:58.969Z,21.51
2022-11-20T00:08:30.512Z,21.51
2022-11-20T00:09:02.106Z,21.49
2022-11-20T00:09:33.660Z,21.50
2022-11-20T00:10:05.451Z,21.46
2022-11-20T00:10:37.398Z,21.48
2022-11-20T00:11:15.364Z,21.44
2022-11-20T00:11:47.498Z,21.43
2022-11-20T00:12:18.969Z,21.44
2022-11-20T00:12:50.597Z,21.44
2022-11-20T00:13:22.186Z,21.46
2022-11-20T00:13:54.648Z,21.46
2022-11-20T00:14:26.158Z,21.46
2022-11-20T00:14:57.623Z,21.44
2022-11-20T00:15:29.194Z,21.45
2022-11-20T00:16:01.136Z,21.45
2022-11-20T00:16:32.982Z,21.45
2022-11-20T00:17:04.547Z,21.46
2022-11-20T00:17:35.984Z,21.45
2022-11-20T00:18:07.588Z,21.44
2022-11-20T00:18:39.098Z,21.44
2022-11-20T00:19:10.593Z,21.44
2022-11-20T00:19:42.183Z,21.45
2022-11-20T00:20:13.762Z,21.45
2022-11-20T00:20:45.254Z,21.45
2022-11-20T00:21:17.584Z,21.45
2022-11-20T00:21:49.126Z,21.46
2022-11-20T00:22:20.608Z,21.44
2022-11-20T00:22:52.196Z,21.46
2022-11-20T00:23:23.755Z,21.47
2022-11-20T00:23:55.699Z,21.46
2022-11-20T00:24:27.197Z,21.47
2022-11-20T00:24:58.775Z,21.47
2022-11-20T00:25:30.242Z,21.46
2022-11-20T00:26:02.546Z,21.44
2022-11-20T00:26:34.253Z,21.45
2022-11-20T00:27:05.778Z,21.46
2022-11-20T00:27:38.358Z,21.46
2022-11-20T00:28:09.822Z,21.45
2022-11-20T00:28:41.898Z,21.45
2022-11-20T00:29:13.379Z,21.48
2022-11-20T00:29:44.938Z,21.46
2022-11-20T00:30:16.481Z,21.44
2022-11-20T00:30:47.942Z,21.44
2022-11-20T00:31:19.397Z,21.45
2022-11-20T00:31:50.911Z,21.44
2022-11-20T00:32:22.429Z,21.45
2022-11-20T00:32:53.907Z,21.43
2022-11-20T00:33:25.453Z,21.42
2022-11-20T00:33:57.018Z,21.43
2022-11-20T00:34:28.482Z,21.42
2022-11-20T00:34:59.968Z,21.44
2022-11-20T00:35:31.456Z,21.43
2022-11-20T00:36:03.610Z,21.42
2022-11-20T00:36:35.108Z,21.44
2022-11-20T00:37:06.596Z,21.44
2022-11-20T00:37:38.122Z,21.43
2022-11-20T00:38:09.648Z,21.42
2022-11-20T00:38:41.135Z,21.42
2022-11-20T00:39:12.695Z,21.42
2022-11-20T00:39:44.196Z,21.43
2022-11-20T00:40:15.697Z,21.45
2022-11-20T00:40:52.242Z,21.44
2022-11-20T00:41:26.698Z,21.41
2022-11-20T00:41:58.811Z,21.40
2022-11-20T00:42:30.271Z,21.42
2022-11-20T00:43:01.835Z,21.43
2022-11-20T00:43:33.380Z,21.42
2022-11-20T00:44:04.991Z,21.43
2022-11-20T00:44:36.543Z,21.44
2022-11-20T00:45:08.311Z,21.43
2022-11-20T00:45:39.803Z,21.44
2022-11-20T00:46:13.697Z,21.47
2022-11-20T00:46:45.141Z,21.51
2022-11-20T00:47:16.650Z,21.53
2022-11-20T00:47:48.182Z,21.52
2022-11-20T00:48:19.663Z,21.50
2022-11-20T00:48:51.124Z,21.49
2022-11-20T00:49:22.835Z,21.45
2022-11-20T00:49:54.686Z,21.47
2022-11-20T00:50:26.236Z,21.49
2022-11-20T00:50:57.861Z,21.47
2022-11-20T00:51:29.459Z,21.42
2022-11-20T00:52:01.138Z,21.40
2022-11-20T00:52:32.654Z,21.40
2022-11-20T00:53:04.202Z,21.42
2022-11-20T00:53:35.711Z,21.41
2022-11-20T00:54:07.178Z,21.39
2022-11-20T00:54:38.668Z,21.40
2022-11-20T00:55:10.223Z,21.40
2022-11-20T00:55:41.687Z,21.37
2022-11-20T00:56:14.052Z,21.38
2022-11-20T00:56:45.609Z,21.39
2022-11-20T00:57:17.089Z,21.37
2022-11-20T00:57:48.591Z,21.42
2022-11-20T00:58:20.111Z,21.39
2022-11-20T00:58:51.550Z,21.42
2022-11-20T00:59:23.418Z,21.42
2022-11-20T00:59:55.116Z,21.39
2022-11-20T01:00:26.627Z,21.39
2022-11-20T01:01:01.734Z,21.40
2022-11-20T01:01:33.315Z,21.39
2022-11-20T01:02:04.809Z,21.36
2022-11-20T01:02:36.375Z,21.40
2022-11-20T01:03:07.816Z,21.42
2022-11-20T01:03:40.255Z,21.39
2022-11-20T01:04:11.778Z,21.40
2022-11-20T01:04:43.398Z,21.41
2022-11-20T01:05:14.969Z,21.40
2022-11-20T01:05:46.447Z,21.39
2022-11-20T01:06:19.132Z,21.44
2022-11-20T01:06:50.615Z,21.44
2022-11-20T01:07:22.174Z,21.44
2022-11-20T01:07:53.735Z,21.44
2022-11-20T01:08:25.319Z,21.45
2022-11-20T01:08:57.425Z,21.42
2022-11-20T01:09:28.871Z,21.40
2022-11-20T01:10:00.357Z,21.40
2022-11-20T01:10:31.810Z,21.40
2022-11-20T01:11:12.341Z,21.42
2022-11-20T01:11:44.289Z,21.40
2022-11-20T01:12:15.778Z,21.41
2022-11-20T01:12:47.282Z,21.40
2022-11-20T01:13:22.913Z,21.39
2022-11-20T01:13:57.233Z,21.42
2022-11-20T01:14:28.696Z,21.40
2022-11-20T01:15:00.208Z,21.42
2022-11-20T01:15:31.661Z,21.43
2022-11-20T01:16:10.649Z,21.43
2022-11-20T01:16:43.051Z,21.42
2022-11-20T01:17:14.497Z,21.41
2022-11-20T01:17:46.046Z,21.40
2022-11-20T01:18:17.495Z,21.39
2022-11-20T01:18:50.024Z,21.40
2022-11-20T01:19:22.361Z,21.39
2022-11-20T01:19:53.957Z,21.39
2022-11-20T01:20:25.521Z,21.41
2022-11-20T01:21:00.606Z,21.40
2022-11-20T01:21:32.936Z,21.42
2022-11-20T01:22:04.449Z,21.39
2022-11-20T01:22:35.965Z,21.39
2022-11-20T01:23:07.434Z,21.38
2022-11-20T01:23:40.468Z,21.40
2022-11-20T01:24:12.759Z,21.39
2022-11-20T01:24:44.258Z,21.42
2022-11-20T01:25:15.711Z,21.42
2022-11-20T01:25:47.172Z,21.43
2022-11-20T01:26:19.966Z,21.39
2022-11-20T01:26:51.626Z,21.40
2022-11-20T01:27:23.111Z,21.42
2022-11-20T01:27:54.563Z,21.40
2022-11-20T01:28:26.022Z,21.37
2022-11-20T01:28:57.667Z,21.37
2022-11-20T01:29:29.210Z,21.39
2022-11-20T01:30:01.435Z,21.39
2022-11-20T01:30:33.160Z,21.39
2022-11-20T01:31:16.574Z,21.40
2022-11-20T01:31:48.118Z,21.37
2022-11-20T01:32:19.652Z,21.39
2022-11-20T01:32:51.126Z,21.40
2022-11-20T01:33:22.597Z,21.40
2022-11-20T01:33:55.107Z,21.39
2022-11-20T01:34:26.730Z,21.37
2022-11-20T01:34:58.296Z,21.38
2022-11-20T01:35:29.798Z,21.36
2022-11-20T01:36:04.616Z,21.40
2022-11-20T01:36:36.299Z,21.39
2022-11-20T01:37:07.821Z,21.38
2022-11-20T01:37:39.246Z,21.39
2022-11-20T01:38:10.657Z,21.38
2022-11-20T01:38:42.245Z,21.39
2022-11-20T01:39:17.409Z,21.40
2022-11-20T01:39:48.861Z,21.38
2022-11-20T01:40:20.327Z,21.39
2022-11-20T01:40:55.044Z,21.37
2022-11-20T01:41:27.006Z,21.38
2022-11-20T01:41:58.619Z,21.38
2022-11-20T01:42:30.171Z,21.40
2022-11-20T01:43:13.672Z,21.39
2022-11-20T01:43:45.150Z,21.39
2022-11-20T01:44:17.578Z,21.40
2022-11-20T01:44:49.024Z,21.38
2022-11-20T01:45:38.811Z,21.37
2022-11-20T01:46:16.940Z,21.37
2022-11-20T01:46:58.631Z,21.36
2022-11-20T01:47:31.542Z,21.38
2022-11-20T01:48:03.115Z,21.39
2022-11-20T01:48:39.422Z,21.36
2022-11-20T01:49:20.145Z,21.37
2022-11-20T01:49:53.791Z,21.37
2022-11-20T01:50:25.981Z,21.37
2022-11-20T01:50:57.449Z,21.39
2022-11-20T01:51:36.434Z,21.39
2022-11-20T01:52:18.174Z,21.39
2022-11-20T01:53:02.562Z,21.37
2022-11-20T01:53:34.467Z,21.35
2022-11-20T01:54:06.844Z,21.36
2022-11-20T01:54:48.139Z,21.36
2022-11-20T01:55:23.217Z,21.34
2022-11-20T01:55:54.943Z,21.33
2022-11-20T01:56:26.419Z,21.35
2022-11-20T01:56:58.064Z,21.35
2022-11-20T01:57:29.767Z,21.34
2022-11-20T01:58:01.390Z,21.35
2022-11-20T01:58:34.207Z,21.36
2022-11-20T01:59:06.441Z,21.35
2022-11-20T01:59:38.980Z,21.36
2022-11-20T02:00:11.444Z,21.36
2022-11-20T02:00:43.004Z,21.34
2022-11-20T02:01:14.591Z,21.34
2022-11-20T02:01:46.236Z,21.35
2022-11-20T02:02:17.803Z,21.33
2022-11-20T02:02:50.878Z,21.35
2022-11-20T02:03:22.438Z,21.35
2022-11-20T02:03:53.959Z,21.37
2022-11-20T02:04:25.468Z,21.38
2022-11-20T02:04:57.939Z,21.37
2022-11-20T02:05:46.421Z,21.36
2022-11-20T02:06:20.014Z,21.36
2022-11-20T02:07:00.680Z,21.35
2022-11-20T02:07:32.390Z,21.35
2022-11-20T02:08:04.230Z,21.34
2022-11-20T02:08:35.829Z,21.35
2022-11-20T02:09:07.301Z,21.35
2022-11-20T02:09:38.908Z,21.35
2022-11-20T02:10:10.474Z,21.35
2022-11-20T02:10:42.001Z,21.35
2022-11-20T02:11:13.528Z,21.37
2022-11-20T02:11:45.023Z,21.35
2022-11-20T02:12:16.440Z,21.33
2022-11-20T02:12:48.354Z,21.36
2022-11-20T02:13:19.834Z,21.35
2022-11-20T02:13:51.422Z,21.35
2022-11-20T02:14:23.020Z,21.33
2022-11-20T02:14:54.520Z,21.34
2022-11-20T02:15:30.149Z,21.34
2022-11-20T02:16:02.358Z,21.33
2022-11-20T02:16:37.092Z,21.34
2022-11-20T02:17:08.871Z,21.36
2022-11-20T02:17:40.376Z,21.37
2022-11-20T02:18:12.142Z,21.38
2022-11-20T02:18:43.818Z,21.36
2022-11-20T02:19:22.637Z,21.35
2022-11-20T02:19:54.492Z,21.36
2022-11-20T02:20:26.067Z,21.39
2022-11-20T02:21:02.155Z,21.36
2022-11-20T02:21:50.441Z,21.35
2022-11-20T02:22:39.352Z,21.35
2022-11-20T02:23:15.395Z,21.34
2022-11-20T02:23:55.380Z,21.36
2022-11-20T02:24:26.913Z,21.35
2022-11-20T02:24:59.650Z,21.33
2022-11-20T02:25:31.133Z,21.32
2022-11-20T02:26:03.031Z,21.32
2022-11-20T02:26:54.773Z,21.33
2022-11-20T02:27:26.309Z,21.35
2022-11-20T02:27:57.830Z,21.33
2022-11-20T02:28:29.336Z,21.34
2022-11-20T02:29:01.354Z,21.36
2022-11-20T02:29:32.879Z,21.35
2022-11-20T02:30:05.215Z,21.35
2022-11-20T02:30:36.714Z,21.34
2022-11-20T02:31:08.210Z,21.35
2022-11-20T02:31:41.184Z,21.36
2022-11-20T02:32:41.800Z,21.35
2022-11-20T02:33:13.385Z,21.35
2022-11-20T02:33:44.847Z,21.35
2022-11-20T02:34:16.390Z,21.34
2022-11-20T02:34:48.023Z,21.34
2022-11-20T02:35:19.513Z,21.35
2022-11-20T02:35:51.039Z,21.36
2022-11-20T02:36:22.476Z,21.34
2022-11-20T02:36:54.094Z,21.36
2022-11-20T02:37:29.043Z,21.37
2022-11-20T02:38:01.476Z,21.35
2022-11-20T02:38:32.988Z,21.36
2022-11-20T02:39:04.633Z,21.36
2022-11-20T02:39:36.135Z,21.32
2022-11-20T02:40:08.122Z,21.33
2022-11-20T02:40:39.614Z,21.33
2022-11-20T02:41:11.171Z,21.34
2022-11-20T02:41:42.677Z,21.33
2022-11-20T02:42:14.260Z,21.33
2022-11-20T02:42:45.869Z,21.33
2022-11-20T02:43:17.439Z,21.33
2022-11-20T02:43:48.962Z,21.34
2022-11-20T02:44:20.682Z,21.35
2022-11-20T02:44:52.149Z,21.34
2022-11-20T02:45:23.991Z,21.35
2022-11-20T02:45:55.479Z,21.34
2022-11-20T02:46:27.451Z,21.34
2022-11-20T02:46:59.097Z,21.32
2022-11-20T02:47:30.573Z,21.33
2022-11-20T02:48:02.011Z,21.35
2022-11-20T02:48:34.046Z,21.39
2022-11-20T02:49:05.713Z,21.36
2022-11-20T02:49:37.156Z,21.35
2022-11-20T02:50:08.872Z,21.34
2022-11-20T02:50:40.443Z,21.34
2022-11-20T02:51:11.934Z,21.34
2022-11-20T02:51:43.500Z,21.33
2022-11-20T02:52:15.052Z,21.35
2022-11-20T02:52:46.575Z,21.34
2022-11-20T02:53:17.987Z,21.34
2022-11-20T02:53:49.457Z,21.33
2022-11-20T02:54:21.004Z,21.34
2022-11-20T02:54:52.511Z,21.34
2022-11-20T02:55:24.035Z,21.33
2022-11-20T02:55:55.502Z,21.35
2022-11-20T02:56:26.892Z,21.36
2022-11-20T02:56:58.400Z,21.33
2022-11-20T02:57:29.939Z,21.34
2022-11-20T02:58:01.424Z,21.31
2022-11-20T02:58:32.916Z,21.31
2022-11-20T02:59:04.464Z,21.33
2022-11-20T02:59:36.028Z,21.32
2022-11-20T03:00:07.889Z,21.32
2022-11-20T03:00:39.364Z,21.31
2022-11-20T03:01:10.907Z,21.36
2022-11-20T03:01:42.538Z,21.34
2022-11-20T03:02:14.104Z,21.34
2022-11-20T03:02:45.623Z,21.34
2022-11-20T03:03:17.096Z,21.35
2022-11-20T03:03:48.841Z,21.34
2022-11-20T03:04:20.359Z,21.34
2022-11-20T03:04:53.171Z,21.33
2022-11-20T03:06:03.161Z,21.33
2022-11-20T03:06:35.087Z,21.34
2022-11-20T03:07:07.449Z,21.32
2022-11-20T03:07:39.645Z,21.32
2022-11-20T03:08:12.679Z,21.30
2022-11-20T03:08:45.031Z,21.32
2022-11-20T03:09:16.761Z,21.32
2022-11-20T03:09:48.738Z,21.33
2022-11-20T03:10:20.534Z,21.31
2022-11-20T03:10:52.670Z,21.33
2022-11-20T03:11:24.484Z,21.33
2022-11-20T03:11:56.473Z,21.31
2022-11-20T03:12:28.458Z,21.33
2022-11-20T03:13:00.050Z,21.32
2022-11-20T06:01:51.070Z,21.30
2022-11-20T06:02:22.921Z,21.29
2022-11-20T06:02:54.734Z,21.30
2022-11-20T06:03:26.600Z,21.28
2022-11-20T06:03:58.191Z,21.29
2022-11-20T06:04:29.902Z,21.30
2022-11-20T06:05:01.920Z,21.29
2022-11-20T06:05:34.703Z,21.30
2022-11-20T06:06:06.403Z,21.29
2022-11-20T09:01:52.278Z,21.31
2022-11-20T09:02:24.219Z,21.31
2022-11-20T09:02:55.708Z,21.33
2022-11-20T09:03:32.581Z,21.33
2022-11-20T09:04:04.722Z,21.31
2022-11-20T09:04:36.732Z,21.31
2022-11-20T09:05:08.335Z,21.33
2022-11-20T09:05:39.939Z,21.32
2022-11-20T09:06:11.500Z,21.32
2022-11-20T09:06:42.988Z,21.31
2022-11-20T09:07:14.559Z,21.32
2022-11-20T09:07:46.079Z,21.32
2022-11-20T09:08:17.618Z,21.31
2022-11-20T09:08:52.479Z,21.31
2022-11-20T09:09:24.076Z,21.31
2022-11-20T09:10:22.111Z,21.30
2022-11-20T09:10:47.144Z,21.32
2022-11-20T09:11:18.669Z,21.33
2022-11-20T09:11:50.116Z,21.31
2022-11-20T09:12:21.603Z,21.32
2022-11-20T09:12:53.395Z,21.32
2022-11-20T09:13:25.416Z,21.31
2022-11-20T09:13:56.914Z,21.32
2022-11-20T09:14:28.535Z,21.32
2022-11-20T09:15:00.010Z,21.31
2022-11-20T09:15:31.543Z,21.33
2022-11-20T09:16:04.348Z,21.33
2022-11-20T09:16:35.872Z,21.30
2022-11-20T09:17:07.325Z,21.30
2022-11-20T09:17:38.840Z,21.31
2022-11-20T09:18:10.334Z,21.30
2022-11-20T09:18:41.805Z,21.32
2022-11-20T09:19:34.614Z,21.31
2022-11-20T09:20:05.180Z,21.34
2022-11-20T09:20:36.779Z,21.31
2022-11-20T09:21:10.631Z,21.34
2022-11-20T09:21:42.215Z,21.30
2022-11-20T09:22:13.693Z,21.32
2022-11-20T09:22:45.365Z,21.32
2022-11-20T09:23:16.858Z,21.33
2022-11-20T09:23:48.336Z,21.31
2022-11-20T09:24:19.841Z,21.33
2022-11-20T09:24:51.363Z,21.33
2022-11-20T09:25:22.902Z,21.32
2022-11-20T09:25:54.350Z,21.32
2022-11-20T09:26:25.831Z,21.32
2022-11-20T09:26:57.316Z,21.31
2022-11-20T09:27:28.818Z,21.31
2022-11-20T09:28:00.371Z,21.32
2022-11-20T09:28:31.906Z,21.33
2022-11-20T09:29:03.466Z,21.33
2022-11-20T09:29:34.954Z,21.34
2022-11-20T09:30:06.751Z,21.33
2022-11-20T09:30:38.391Z,21.34
2022-11-20T09:31:10.640Z,21.32
2022-11-20T09:31:42.084Z,21.33
2022-11-20T09:32:13.571Z,21.33
2022-11-20T09:32:45.041Z,21.33
2022-11-20T09:33:16.513Z,21.35
2022-11-20T09:33:48.024Z,21.32
2022-11-20T09:34:19.541Z,21.34
2022-11-20T09:34:51.029Z,21.32
2022-11-20T09:35:22.469Z,21.31
2022-11-20T09:35:54.095Z,21.33
2022-11-20T09:36:25.623Z,21.33
2022-11-20T09:36:57.149Z,21.32
2022-11-20T09:37:29.489Z,21.31
2022-11-20T09:38:05.253Z,21.31
2022-11-20T09:38:36.757Z,21.32
2022-11-20T09:39:08.368Z,21.31
2022-11-20T09:39:39.982Z,21.33
2022-11-20T09:40:23.680Z,21.32
2022-11-20T09:40:59.080Z,21.32
2022-11-20T09:41:36.377Z,21.32
2022-11-20T09:42:26.708Z,21.33
2022-11-20T09:42:58.124Z,21.31
2022-11-20T09:43:34.945Z,21.31
2022-11-20T09:44:25.264Z,21.31
2022-11-20T09:45:11.750Z,21.31
2022-11-20T09:45:55.872Z,21.32
2022-11-20T09:46:30.810Z,21.32
2022-11-20T09:47:03.342Z,21.31
2022-11-20T09:47:53.004Z,21.31
2022-11-20T09:48:43.034Z,21.31
2022-11-20T09:49:21.437Z,21.32
2022-11-20T09:49:57.070Z,21.32
2022-11-20T09:50:31.330Z,21.33
2022-11-20T09:51:17.996Z,21.33
2022-11-20T09:51:54.911Z,21.32
2022-11-20T09:52:30.042Z,21.34
2022-11-20T09:53:07.182Z,21.31
2022-11-20T09:53:58.870Z,21.33
2022-11-20T09:54:31.295Z,21.31
2022-11-20T09:55:02.918Z,21.33
2022-11-20T09:55:34.431Z,21.33
2022-11-20T09:56:05.965Z,21.33
2022-11-20T09:56:38.472Z,21.34
2022-11-20T09:57:11.911Z,21.32
2022-11-20T09:57:44.099Z,21.34
2022-11-20T09:58:34.778Z,21.32
2022-11-20T09:59:06.428Z,21.35
2022-11-20T09:59:39.357Z,21.35
2022-11-20T10:00:11.758Z,21.34
2022-11-20T10:00:43.215Z,21.33
2022-11-20T10:01:22.218Z,21.32
2022-11-20T10:01:54.272Z,21.33
2022-11-20T10:02:36.374Z,21.32
2022-11-20T10:03:07.821Z,21.32
2022-11-20T10:03:45.107Z,21.32
2022-11-20T10:04:20.551Z,21.30
2022-11-20T10:05:04.177Z,21.32
2022-11-20T10:05:40.288Z,21.33
2022-11-20T10:06:13.078Z,21.32
2022-11-20T10:07:17.146Z,21.31
2022-11-20T10:08:00.420Z,21.33
2022-11-20T10:08:40.399Z,21.33
2022-11-20T10:09:11.920Z,21.34
2022-11-20T10:09:45.002Z,21.33
2022-11-20T10:10:17.418Z,21.34
2022-11-20T10:10:57.756Z,21.33
2022-11-20T10:11:37.993Z,21.33
2022-11-20T10:12:18.268Z,21.33
2022-11-20T10:13:01.774Z,21.33
2022-11-20T10:13:38.982Z,21.33
2022-11-20T10:14:13.316Z,21.32
2022-11-20T10:15:02.822Z,21.33
2022-11-20T10:15:35.324Z,21.33
2022-11-20T10:16:15.819Z,21.34
2022-11-20T10:17:00.206Z,21.33
2022-11-20T10:17:31.718Z,21.31
2022-11-20T10:18:24.269Z,21.31
2022-11-20T10:18:55.760Z,21.31
2022-11-20T10:19:33.529Z,21.32
2022-11-20T10:20:17.118Z,21.33
2022-11-20T10:21:07.123Z,21.33
2022-11-20T10:21:38.539Z,21.33
2022-11-20T10:22:15.742Z,21.34
2022-11-20T10:23:05.820Z,21.32
2022-11-20T10:23:51.383Z,21.32
2022-11-20T10:24:35.830Z,21.33
2022-11-20T10:25:13.300Z,21.33
2022-11-20T10:25:47.257Z,21.34
2022-11-20T10:26:23.822Z,21.31
2022-11-20T10:27:01.291Z,21.31
2022-11-20T10:27:41.317Z,21.32
2022-11-20T10:28:35.868Z,21.34
2022-11-20T10:29:08.962Z,21.35
2022-11-20T10:29:41.472Z,21.34
2022-11-20T10:30:16.548Z,21.33
2022-11-20T10:30:49.162Z,21.33
2022-11-20T10:31:39.227Z,21.33
2022-11-20T10:32:11.930Z,21.31
2022-11-20T10:32:44.081Z,21.31
2022-11-20T10:33:18.787Z,21.33
2022-11-20T10:34:10.963Z,21.34
2022-11-20T10:34:55.367Z,21.34
2022-11-20T10:35:33.223Z,21.33
2022-11-20T10:36:15.227Z,21.33
2022-11-20T10:36:48.200Z,21.33
2022-11-20T10:37:22.178Z,21.32
2022-11-20T10:37:57.456Z,21.34
2022-11-20T10:38:41.325Z,21.34
2022-11-20T10:39:12.806Z,21.34
2022-11-20T10:40:01.414Z,21.35
2022-11-20T10:40:39.600Z,21.36
2022-11-20T10:41:14.903Z,21.34
2022-11-20T10:41:47.212Z,21.33
2022-11-20T10:42:23.298Z,21.35
2022-11-20T10:43:00.968Z,21.36
2022-11-20T10:43:33.450Z,21.35
2022-11-20T10:44:10.650Z,21.35
2022-11-20T10:44:42.749Z,21.35
2022-11-20T10:45:21.014Z,21.34
2022-11-20T10:46:06.359Z,21.34
2022-11-20T10:46:40.823Z,21.34
2022-11-20T10:47:18.782Z,21.35
2022-11-20T10:47:50.257Z,21.36
2022-11-20T10:48:22.895Z,21.34
2022-11-20T10:48:54.503Z,21.34
2022-11-20T10:49:26.021Z,21.35
2022-11-20T10:49:58.405Z,21.34
2022-11-20T10:50:29.908Z,21.35
2022-11-20T10:51:07.074Z,21.34
2022-11-20T10:51:39.959Z,21.34
2022-11-20T10:52:11.494Z,21.33
2022-11-20T10:52:52.078Z,21.34
2022-11-20T10:53:32.528Z,21.34
2022-11-20T10:54:03.944Z,21.32
2022-11-20T10:54:41.252Z,21.32
2022-11-20T10:55:15.390Z,21.30
2022-11-20T10:55:48.118Z,21.31
2022-11-20T10:56:38.278Z,21.31
2022-11-20T10:57:21.381Z,21.33
2022-11-20T10:57:52.843Z,21.31
2022-11-20T10:58:40.693Z,21.32
2022-11-20T10:59:21.388Z,21.30
2022-11-20T10:59:55.807Z,21.32
2022-11-20T11:00:27.341Z,21.31
2022-11-20T11:01:12.856Z,21.31
2022-11-20T11:01:44.414Z,21.33
2022-11-20T11:02:16.721Z,21.34
2022-11-20T11:02:48.886Z,21.33
2022-11-20T11:03:27.157Z,21.33
2022-11-20T11:03:58.666Z,21.32
2022-11-20T11:04:41.381Z,21.35
2022-11-20T11:05:15.669Z,21.34
2022-11-20T11:05:49.918Z,21.36
2022-11-20T11:06:35.375Z,21.33
2022-11-20T11:07:11.640Z,21.31
2022-11-20T11:07:43.249Z,21.32
2022-11-20T11:08:18.550Z,21.35
2022-11-20T11:08:50.103Z,21.34
2022-11-20T11:09:22.701Z,21.34
2022-11-20T11:09:55.016Z,21.34
2022-11-20T11:10:33.623Z,21.35
2022-11-20T11:11:28.010Z,21.31
2022-11-20T11:12:05.723Z,21.33
2022-11-20T11:12:38.578Z,21.33
2022-11-20T11:13:20.101Z,21.34
2022-11-20T11:13:51.596Z,21.33
2022-11-20T11:14:23.135Z,21.33
2022-11-20T11:14:55.449Z,21.33
2022-11-20T11:15:28.031Z,21.30
2022-11-20T11:15:59.646Z,21.31
2022-11-20T11:16:31.203Z,21.32
2022-11-20T11:17:02.745Z,21.31
2022-11-20T11:17:34.962Z,21.33
2022-11-20T11:18:08.812Z,21.32
2022-11-20T11:18:40.320Z,21.31
2022-11-20T11:19:14.483Z,21.32
2022-11-20T11:19:45.917Z,21.33
2022-11-20T11:20:21.348Z,21.33
2022-11-20T11:20:53.120Z,21.32
2022-11-20T11:21:24.880Z,21.33
2022-11-20T11:21:56.835Z,21.34
2022-11-20T11:22:29.135Z,21.34
2022-11-20T11:23:00.795Z,21.34
2022-11-20T11:23:42.506Z,21.35
2022-11-20T11:24:47.455Z,21.34
2022-11-20T11:25:29.997Z,21.35
2022-11-20T11:26:01.890Z,21.32
2022-11-20T11:26:33.450Z,21.32
2022-11-20T11:27:05.519Z,21.32
2022-11-20T11:27:37.103Z,21.31
2022-11-20T11:28:17.320Z,21.33
2022-11-20T11:29:01.360Z,21.33
2022-11-20T11:29:32.841Z,21.31
2022-11-20T11:30:14.362Z,21.32
2022-11-20T11:30:45.874Z,21.31
2022-11-20T11:31:24.313Z,21.31
2022-11-20T11:32:08.940Z,21.31
2022-11-20T11:32:40.439Z,21.33
2022-11-20T11:33:12.804Z,21.33
2022-11-20T11:33:44.222Z,21.32
2022-11-20T11:34:16.579Z,21.33
2022-11-20T11:35:00.668Z,21.34
2022-11-20T11:35:32.401Z,21.34
2022-11-20T11:36:04.611Z,21.33
2022-11-20T11:36:36.237Z,21.32
2022-11-20T11:37:18.398Z,21.32
2022-11-20T11:37:49.896Z,21.33
2022-11-20T11:38:23.061Z,21.32
2022-11-20T11:38:54.516Z,21.33
2022-11-20T11:39:26.283Z,21.32
2022-11-20T11:40:22.731Z,21.35
2022-11-20T11:40:49.173Z,21.35
2022-11-20T11:41:21.756Z,21.33
2022-11-20T11:41:53.232Z,21.32
2022-11-20T11:42:24.731Z,21.33
2022-11-20T11:42:59.405Z,21.33
2022-11-20T11:43:36.640Z,21.34
2022-11-20T11:44:19.501Z,21.31
2022-11-20T11:44:51.036Z,21.32
2022-11-20T11:45:22.587Z,21.33
2022-11-20T11:45:55.051Z,21.34
2022-11-20T11:46:29.458Z,21.33
2022-11-20T11:47:00.981Z,21.34
2022-11-20T11:47:32.511Z,21.34
2022-11-20T11:48:04.145Z,21.34
2022-11-20T11:48:35.632Z,21.34
2022-11-20T11:49:09.831Z,21.35
2022-11-20T11:49:41.436Z,21.35
2022-11-20T11:50:12.961Z,21.33
2022-11-20T11:50:49.059Z,21.31
2022-11-20T11:51:23.683Z,21.32
2022-11-20T11:51:59.462Z,21.34
2022-11-20T11:52:30.996Z,21.35
2022-11-20T11:53:02.533Z,21.36
2022-11-20T11:53:34.036Z,21.35
2022-11-20T11:54:06.469Z,21.34
2022-11-20T11:54:39.310Z,21.34
2022-11-20T11:55:12.035Z,21.34
2022-11-20T11:55:44.232Z,21.35
2022-11-20T11:56:15.731Z,21.34
2022-11-20T11:56:47.244Z,21.35
2022-11-20T11:57:21.558Z,21.34
2022-11-20T11:57:55.476Z,21.34
2022-11-20T11:58:29.610Z,21.34
2022-11-20T11:59:01.826Z,21.34
2022-11-20T11:59:39.607Z,21.33
2022-11-20T12:00:15.306Z,21.33
2022-11-20T12:00:58.007Z,21.33
2022-11-20T12:01:33.009Z,21.34
2022-11-20T12:02:05.002Z,21.34
2022-11-20T12:02:41.531Z,21.33
2022-11-20T12:03:26.256Z,21.34
2022-11-20T12:04:03.477Z,21.36
2022-11-20T12:04:41.304Z,21.35
2022-11-20T12:05:22.811Z,21.34
2022-11-20T12:06:13.870Z,21.34
2022-11-20T12:06:46.418Z,21.34
2022-11-20T12:07:44.720Z,21.34
2022-11-20T12:08:12.854Z,21.36
2022-11-20T12:09:13.959Z,21.35
2022-11-20T12:09:47.164Z,21.35
2022-11-20T12:10:27.606Z,21.35
2022-11-20T12:11:04.820Z,21.34
2022-11-20T12:11:36.328Z,21.36
2022-11-20T12:12:16.285Z,21.37
2022-11-20T12:12:49.299Z,21.35
2022-11-20T12:13:39.638Z,21.36
2022-11-20T12:14:20.920Z,21.33
2022-11-20T12:14:52.499Z,21.34
2022-11-20T12:15:26.530Z,21.35
2022-11-20T12:15:58.038Z,21.37
2022-11-20T12:16:29.475Z,21.36
2022-11-20T12:17:01.256Z,21.36
2022-11-20T12:17:32.724Z,21.38
2022-11-20T12:18:05.750Z,21.39
2022-11-20T12:18:37.176Z,21.37
2022-11-20T12:19:12.456Z,21.36
2022-11-20T12:19:43.987Z,21.36
2022-11-20T12:20:15.534Z,21.35
2022-11-20T12:20:49.553Z,21.39
2022-11-20T12:21:23.968Z,21.36
2022-11-20T12:22:03.347Z,21.39
2022-11-20T12:22:39.970Z,21.36
2022-11-20T12:23:43.455Z,21.34
2022-11-20T12:24:33.517Z,21.35
2022-11-20T12:25:07.791Z,21.34
2022-11-20T12:25:39.327Z,21.35
2022-11-20T12:26:23.101Z,21.34
2022-11-20T12:26:54.590Z,21.35
2022-11-20T12:27:29.141Z,21.34
2022-11-20T12:28:09.559Z,21.34
2022-11-20T12:28:44.211Z,21.34
2022-11-20T12:29:28.621Z,21.35
2022-11-20T12:30:01.833Z,21.36
2022-11-20T12:30:33.793Z,21.35
2022-11-20T12:31:05.251Z,21.37
2022-11-20T12:31:36.701Z,21.40
2022-11-20T12:32:08.187Z,21.35
2022-11-20T12:32:42.638Z,21.38
2022-11-20T12:33:14.088Z,21.38
2022-11-20T12:33:45.583Z,21.39
2022-11-20T12:34:19.749Z,21.37
2022-11-20T12:35:14.113Z,21.37
2022-11-20T12:36:03.568Z,21.37
2022-11-20T12:36:50.954Z,21.37
2022-11-20T12:37:34.285Z,21.41
2022-11-20T12:38:20.917Z,21.39
2022-11-20T12:39:01.047Z,21.37
2022-11-20T12:39:35.873Z,21.38
2022-11-20T12:40:15.761Z,21.40
2022-11-20T12:40:50.842Z,21.42
2022-11-20T12:41:37.311Z,21.39
2022-11-20T12:42:18.431Z,21.39
2022-11-20T12:43:08.693Z,21.40
2022-11-20T12:44:06.302Z,21.36
2022-11-20T12:44:41.785Z,21.39
2022-11-20T12:45:25.799Z,21.39
2022-11-20T12:46:09.349Z,21.39
2022-11-20T12:46:40.759Z,21.39
2022-11-20T12:47:21.205Z,21.37
2022-11-20T12:47:58.817Z,21.37
2022-11-20T12:48:35.903Z,21.37
2022-11-20T12:49:13.149Z,21.39
2022-11-20T12:50:03.227Z,21.41
2022-11-20T12:51:08.188Z,21.40
2022-11-20T12:51:46.202Z,21.40
2022-11-20T12:52:30.498Z,21.39
2022-11-20T12:53:04.585Z,21.40
2022-11-20T12:53:36.026Z,21.43
2022-11-20T12:54:10.193Z,21.42
2022-11-20T12:54:52.097Z,21.42
2022-11-20T12:55:42.012Z,21.39
2022-11-20T12:56:45.659Z,21.40
2022-11-20T12:57:19.649Z,21.37
2022-11-20T12:57:51.906Z,21.39
2022-11-20T12:58:33.081Z,21.42
2022-11-20T12:59:11.964Z,21.40
2022-11-20T12:59:43.392Z,21.40
2022-11-20T13:00:21.264Z,21.39
2022-11-20T13:00:59.684Z,21.40
2022-11-20T13:01:34.081Z,21.40
2022-11-20T13:02:24.316Z,21.42
2022-11-20T13:03:04.677Z,21.43
2022-11-20T13:03:52.065Z,21.43
2022-11-20T13:04:41.985Z,21.43
2022-11-20T13:05:20.524Z,21.42
2022-11-20T13:06:10.775Z,21.43
2022-11-20T13:06:42.304Z,21.42
2022-11-20T13:07:14.136Z,21.41
2022-11-20T13:07:45.784Z,21.44
2022-11-20T13:08:28.423Z,21.42
2022-11-20T13:08:59.990Z,21.43
2022-11-20T13:09:31.511Z,21.44
2022-11-20T13:10:03.057Z,21.43
2022-11-20T13:10:34.502Z,21.42